sensor_id;sensor_type;location;lat;lon;timestamp;temperature;humidity
39493;DHT22;25176;51.060;3.720;2023-06-22T00:00:44;22.70;74.30
39493;DHT22;25176;51.060;3.720;2023-06-22T00:03:10;22.70;75.00
39493;DHT22;25176;51.060;3.720;2023-06-22T00:05:35;22.80;75.10
39493;DHT22;25176;51.060;3.720;2023-06-22T00:08:03;22.70;76.00
39493;DHT22;25176;51.060;3.720;2023-06-22T00:10:32;22.60;76.60
39493;DHT22;25176;51.060;3.720;2023-06-22T00:12:57;22.50;77.60
39493;DHT22;25176;51.060;3.720;2023-06-22T00:15:23;22.40;79.00
39493;DHT22;25176;51.060;3.720;2023-06-22T00:17:49;22.40;78.30
39493;DHT22;25176;51.060;3.720;2023-06-22T00:20:15;22.40;78.50
39493;DHT22;25176;51.060;3.720;2023-06-22T00:22:42;22.50;78.50
39493;DHT22;25176;51.060;3.720;2023-06-22T00:25:08;22.50;78.70
39493;DHT22;25176;51.060;3.720;2023-06-22T00:27:34;22.60;78.50
39493;DHT22;25176;51.060;3.720;2023-06-22T00:29:59;22.60;78.50
39493;DHT22;25176;51.060;3.720;2023-06-22T00:32:25;22.40;79.50
39493;DHT22;25176;51.060;3.720;2023-06-22T00:34:50;22.10;80.80
39493;DHT22;25176;51.060;3.720;2023-06-22T00:37:16;22.00;82.10
39493;DHT22;25176;51.060;3.720;2023-06-22T00:39:44;21.80;83.90
39493;DHT22;25176;51.060;3.720;2023-06-22T00:42:10;21.80;83.20
39493;DHT22;25176;51.060;3.720;2023-06-22T00:44:35;21.70;82.60
39493;DHT22;25176;51.060;3.720;2023-06-22T00:47:01;21.70;82.00
39493;DHT22;25176;51.060;3.720;2023-06-22T00:49:27;21.70;81.70
39493;DHT22;25176;51.060;3.720;2023-06-22T00:51:52;21.90;81.40
39493;DHT22;25176;51.060;3.720;2023-06-22T00:54:18;21.80;80.50
39493;DHT22;25176;51.060;3.720;2023-06-22T00:56:51;21.90;80.60
39493;DHT22;25176;51.060;3.720;2023-06-22T00:59:17;22.00;80.60
39493;DHT22;25176;51.060;3.720;2023-06-22T01:01:43;21.90;79.10
39493;DHT22;25176;51.060;3.720;2023-06-22T01:04:10;22.00;79.80
39493;DHT22;25176;51.060;3.720;2023-06-22T01:06:38;22.10;79.00
39493;DHT22;25176;51.060;3.720;2023-06-22T01:09:08;22.10;78.40
39493;DHT22;25176;51.060;3.720;2023-06-22T01:11:40;22.20;78.70
39493;DHT22;25176;51.060;3.720;2023-06-22T01:14:12;22.20;78.30
39493;DHT22;25176;51.060;3.720;2023-06-22T01:16:40;22.30;78.30
39493;DHT22;25176;51.060;3.720;2023-06-22T01:19:10;22.30;77.80
39493;DHT22;25176;51.060;3.720;2023-06-22T01:21:40;22.20;77.20
39493;DHT22;25176;51.060;3.720;2023-06-22T01:24:10;22.20;77.80
39493;DHT22;25176;51.060;3.720;2023-06-22T01:26:47;21.90;78.20
39493;DHT22;25176;51.060;3.720;2023-06-22T01:29:15;21.80;79.50
39493;DHT22;25176;51.060;3.720;2023-06-22T01:31:41;22.00;78.90
39493;DHT22;25176;51.060;3.720;2023-06-22T01:34:08;22.00;78.70
39493;DHT22;25176;51.060;3.720;2023-06-22T01:36:34;22.00;79.20
39493;DHT22;25176;51.060;3.720;2023-06-22T01:38:59;22.10;78.70
39493;DHT22;25176;51.060;3.720;2023-06-22T01:41:26;22.10;77.90
39493;DHT22;25176;51.060;3.720;2023-06-22T01:43:52;21.90;78.40
39493;DHT22;25176;51.060;3.720;2023-06-22T01:46:18;21.80;79.30
39493;DHT22;25176;51.060;3.720;2023-06-22T01:48:45;21.80;78.90
39493;DHT22;25176;51.060;3.720;2023-06-22T01:51:10;21.60;79.30
39493;DHT22;25176;51.060;3.720;2023-06-22T01:53:36;21.50;80.70
39493;DHT22;25176;51.060;3.720;2023-06-22T01:56:02;21.40;80.50
39493;DHT22;25176;51.060;3.720;2023-06-22T01:58:28;21.50;80.50
39493;DHT22;25176;51.060;3.720;2023-06-22T02:00:58;21.50;79.40
39493;DHT22;25176;51.060;3.720;2023-06-22T02:03:36;21.50;79.00
39493;DHT22;25176;51.060;3.720;2023-06-22T02:06:10;21.50;79.10
39493;DHT22;25176;51.060;3.720;2023-06-22T02:08:40;21.40;79.20
39493;DHT22;25176;51.060;3.720;2023-06-22T02:11:08;21.50;78.90
39493;DHT22;25176;51.060;3.720;2023-06-22T02:13:34;21.60;79.20
39493;DHT22;25176;51.060;3.720;2023-06-22T02:16:01;21.80;78.60
39493;DHT22;25176;51.060;3.720;2023-06-22T02:18:26;21.80;78.10
39493;DHT22;25176;51.060;3.720;2023-06-22T02:20:52;21.80;78.20
39493;DHT22;25176;51.060;3.720;2023-06-22T02:23:17;21.70;78.60
39493;DHT22;25176;51.060;3.720;2023-06-22T02:25:43;21.70;79.40
39493;DHT22;25176;51.060;3.720;2023-06-22T02:28:09;21.70;79.50
39493;DHT22;25176;51.060;3.720;2023-06-22T02:30:35;21.80;79.00
39493;DHT22;25176;51.060;3.720;2023-06-22T02:33:00;21.80;78.30
39493;DHT22;25176;51.060;3.720;2023-06-22T02:35:26;21.70;78.90
39493;DHT22;25176;51.060;3.720;2023-06-22T02:37:52;21.80;79.10
39493;DHT22;25176;51.060;3.720;2023-06-22T02:40:18;21.80;79.40
39493;DHT22;25176;51.060;3.720;2023-06-22T02:42:44;21.80;80.40
39493;DHT22;25176;51.060;3.720;2023-06-22T02:45:09;21.80;81.10
39493;DHT22;25176;51.060;3.720;2023-06-22T02:47:35;21.90;81.40
39493;DHT22;25176;51.060;3.720;2023-06-22T02:50:00;21.90;81.40
39493;DHT22;25176;51.060;3.720;2023-06-22T02:52:26;21.90;81.70
39493;DHT22;25176;51.060;3.720;2023-06-22T02:54:52;21.90;82.20
39493;DHT22;25176;51.060;3.720;2023-06-22T02:57:17;21.80;82.50
39493;DHT22;25176;51.060;3.720;2023-06-22T02:59:43;21.80;82.90
39493;DHT22;25176;51.060;3.720;2023-06-22T03:02:08;21.70;82.80
39493;DHT22;25176;51.060;3.720;2023-06-22T03:04:34;21.80;83.20
39493;DHT22;25176;51.060;3.720;2023-06-22T03:07:00;21.70;83.50
39493;DHT22;25176;51.060;3.720;2023-06-22T03:09:29;21.70;83.90
39493;DHT22;25176;51.060;3.720;2023-06-22T03:11:55;21.70;83.80
39493;DHT22;25176;51.060;3.720;2023-06-22T03:14:20;21.70;83.90
39493;DHT22;25176;51.060;3.720;2023-06-22T03:16:46;21.70;84.30
39493;DHT22;25176;51.060;3.720;2023-06-22T03:19:12;21.70;84.60
39493;DHT22;25176;51.060;3.720;2023-06-22T03:21:37;21.60;84.90
39493;DHT22;25176;51.060;3.720;2023-06-22T03:24:04;21.60;85.30
39493;DHT22;25176;51.060;3.720;2023-06-22T03:26:30;21.60;85.50
39493;DHT22;25176;51.060;3.720;2023-06-22T03:28:55;21.50;85.90
39493;DHT22;25176;51.060;3.720;2023-06-22T03:31:21;21.50;86.00
39493;DHT22;25176;51.060;3.720;2023-06-22T03:33:47;21.50;85.90
39493;DHT22;25176;51.060;3.720;2023-06-22T03:36:14;21.50;86.20
39493;DHT22;25176;51.060;3.720;2023-06-22T03:38:44;21.50;86.60
39493;DHT22;25176;51.060;3.720;2023-06-22T03:41:10;21.40;86.80
39493;DHT22;25176;51.060;3.720;2023-06-22T03:43:35;21.40;87.00
39493;DHT22;25176;51.060;3.720;2023-06-22T03:46:01;21.40;87.50
39493;DHT22;25176;51.060;3.720;2023-06-22T03:48:26;21.40;87.70
39493;DHT22;25176;51.060;3.720;2023-06-22T03:50:52;21.40;87.80
39493;DHT22;25176;51.060;3.720;2023-06-22T03:53:17;21.40;88.00
39493;DHT22;25176;51.060;3.720;2023-06-22T03:55:52;21.30;88.20
39493;DHT22;25176;51.060;3.720;2023-06-22T03:58:18;21.30;88.80
39493;DHT22;25176;51.060;3.720;2023-06-22T04:00:48;21.30;89.30
39493;DHT22;25176;51.060;3.720;2023-06-22T04:03:13;21.30;89.60
39493;DHT22;25176;51.060;3.720;2023-06-22T04:05:39;21.40;89.70
39493;DHT22;25176;51.060;3.720;2023-06-22T04:08:05;21.30;90.00
39493;DHT22;25176;51.060;3.720;2023-06-22T04:10:30;21.30;90.00
39493;DHT22;25176;51.060;3.720;2023-06-22T04:12:56;21.30;90.40
39493;DHT22;25176;51.060;3.720;2023-06-22T04:15:21;21.30;90.70
39493;DHT22;25176;51.060;3.720;2023-06-22T04:17:47;21.30;91.00
39493;DHT22;25176;51.060;3.720;2023-06-22T04:20:13;21.20;91.30
39493;DHT22;25176;51.060;3.720;2023-06-22T04:22:38;21.10;91.80
39493;DHT22;25176;51.060;3.720;2023-06-22T04:25:05;21.10;92.00
39493;DHT22;25176;51.060;3.720;2023-06-22T04:27:30;21.10;92.30
39493;DHT22;25176;51.060;3.720;2023-06-22T04:29:57;21.00;92.80
39493;DHT22;25176;51.060;3.720;2023-06-22T04:32:25;21.00;93.00
39493;DHT22;25176;51.060;3.720;2023-06-22T04:34:51;21.00;93.50
39493;DHT22;25176;51.060;3.720;2023-06-22T04:37:17;21.00;93.80
39493;DHT22;25176;51.060;3.720;2023-06-22T04:39:43;21.00;94.30
39493;DHT22;25176;51.060;3.720;2023-06-22T04:42:08;21.10;94.30
39493;DHT22;25176;51.060;3.720;2023-06-22T04:44:34;21.10;94.60
39493;DHT22;25176;51.060;3.720;2023-06-22T04:47:01;21.10;94.80
39493;DHT22;25176;51.060;3.720;2023-06-22T04:49:29;21.20;95.30
39493;DHT22;25176;51.060;3.720;2023-06-22T04:51:58;21.20;95.40
39493;DHT22;25176;51.060;3.720;2023-06-22T04:54:24;21.30;95.70
39493;DHT22;25176;51.060;3.720;2023-06-22T04:56:49;21.40;95.50
39493;DHT22;25176;51.060;3.720;2023-06-22T04:59:22;21.50;95.30
39493;DHT22;25176;51.060;3.720;2023-06-22T05:01:47;21.60;95.20
39493;DHT22;25176;51.060;3.720;2023-06-22T05:04:13;21.70;95.30
39493;DHT22;25176;51.060;3.720;2023-06-22T05:06:38;21.80;95.20
39493;DHT22;25176;51.060;3.720;2023-06-22T05:09:05;22.00;95.00
39493;DHT22;25176;51.060;3.720;2023-06-22T05:11:31;22.00;95.00
39493;DHT22;25176;51.060;3.720;2023-06-22T05:13:57;22.10;94.80
39493;DHT22;25176;51.060;3.720;2023-06-22T05:16:22;22.20;94.70
39493;DHT22;25176;51.060;3.720;2023-06-22T05:18:51;22.30;94.80
39493;DHT22;25176;51.060;3.720;2023-06-22T05:21:17;22.40;94.40
39493;DHT22;25176;51.060;3.720;2023-06-22T05:23:43;22.50;94.30
39493;DHT22;25176;51.060;3.720;2023-06-22T05:26:08;22.50;93.70
39493;DHT22;25176;51.060;3.720;2023-06-22T05:28:35;22.70;93.70
39493;DHT22;25176;51.060;3.720;2023-06-22T05:31:01;22.60;93.50
39493;DHT22;25176;51.060;3.720;2023-06-22T05:33:26;22.70;93.40
39493;DHT22;25176;51.060;3.720;2023-06-22T05:35:52;22.80;92.70
39493;DHT22;25176;51.060;3.720;2023-06-22T05:38:17;22.90;92.60
39493;DHT22;25176;51.060;3.720;2023-06-22T05:40:42;23.10;92.20
39493;DHT22;25176;51.060;3.720;2023-06-22T05:43:08;23.00;91.90
39493;DHT22;25176;51.060;3.720;2023-06-22T05:45:34;23.30;91.50
39493;DHT22;25176;51.060;3.720;2023-06-22T05:47:59;23.30;90.90
39493;DHT22;25176;51.060;3.720;2023-06-22T05:50:25;23.50;90.80
39493;DHT22;25176;51.060;3.720;2023-06-22T05:52:50;23.80;90.60
39493;DHT22;25176;51.060;3.720;2023-06-22T05:55:16;24.10;89.90
39493;DHT22;25176;51.060;3.720;2023-06-22T05:57:44;23.70;90.00
39493;DHT22;25176;51.060;3.720;2023-06-22T06:00:10;23.50;90.50
39493;DHT22;25176;51.060;3.720;2023-06-22T06:02:36;23.40;90.80
39493;DHT22;25176;51.060;3.720;2023-06-22T06:05:03;23.40;90.90
39493;DHT22;25176;51.060;3.720;2023-06-22T06:07:29;23.70;90.50
39493;DHT22;25176;51.060;3.720;2023-06-22T06:09:55;23.50;91.00
39493;DHT22;25176;51.060;3.720;2023-06-22T06:12:24;23.70;90.50
39493;DHT22;25176;51.060;3.720;2023-06-22T06:14:52;23.70;91.00
39493;DHT22;25176;51.060;3.720;2023-06-22T06:17:20;23.90;90.30
39493;DHT22;25176;51.060;3.720;2023-06-22T06:19:46;23.70;90.90
39493;DHT22;25176;51.060;3.720;2023-06-22T06:22:12;23.90;90.30
39493;DHT22;25176;51.060;3.720;2023-06-22T06:24:37;23.90;90.40
39493;DHT22;25176;51.060;3.720;2023-06-22T06:27:03;23.60;90.80
39493;DHT22;25176;51.060;3.720;2023-06-22T06:29:30;23.30;90.90
39493;DHT22;25176;51.060;3.720;2023-06-22T06:31:56;23.60;91.10
39493;DHT22;25176;51.060;3.720;2023-06-22T06:34:22;23.90;90.60
39493;DHT22;25176;51.060;3.720;2023-06-22T06:36:47;23.90;90.50
39493;DHT22;25176;51.060;3.720;2023-06-22T06:39:13;23.80;91.00
39493;DHT22;25176;51.060;3.720;2023-06-22T06:41:38;23.80;90.80
39493;DHT22;25176;51.060;3.720;2023-06-22T06:44:04;23.90;90.90
39493;DHT22;25176;51.060;3.720;2023-06-22T06:46:29;24.30;90.30
39493;DHT22;25176;51.060;3.720;2023-06-22T06:48:55;24.30;89.80
39493;DHT22;25176;51.060;3.720;2023-06-22T06:51:21;24.10;90.30
39493;DHT22;25176;51.060;3.720;2023-06-22T06:53:46;24.30;90.10
39493;DHT22;25176;51.060;3.720;2023-06-22T06:56:12;24.20;90.00
39493;DHT22;25176;51.060;3.720;2023-06-22T06:58:40;24.50;89.00
39493;DHT22;25176;51.060;3.720;2023-06-22T07:01:05;24.70;88.70
39493;DHT22;25176;51.060;3.720;2023-06-22T07:03:31;24.60;88.60
39493;DHT22;25176;51.060;3.720;2023-06-22T07:05:58;24.80;87.80
39493;DHT22;25176;51.060;3.720;2023-06-22T07:08:24;25.00;86.50
39493;DHT22;25176;51.060;3.720;2023-06-22T07:10:50;24.70;88.10
39493;DHT22;25176;51.060;3.720;2023-06-22T07:13:17;25.00;87.50
39493;DHT22;25176;51.060;3.720;2023-06-22T07:15:42;24.60;87.80
39493;DHT22;25176;51.060;3.720;2023-06-22T07:18:08;24.20;89.70
39493;DHT22;25176;51.060;3.720;2023-06-22T07:20:33;24.20;89.80
39493;DHT22;25176;51.060;3.720;2023-06-22T07:22:59;24.30;89.60
39493;DHT22;25176;51.060;3.720;2023-06-22T07:25:24;24.50;89.30
39493;DHT22;25176;51.060;3.720;2023-06-22T07:27:57;24.40;89.70
39493;DHT22;25176;51.060;3.720;2023-06-22T07:30:23;24.40;88.70
39493;DHT22;25176;51.060;3.720;2023-06-22T07:32:49;24.30;89.60
39493;DHT22;25176;51.060;3.720;2023-06-22T07:35:14;24.50;89.00
39493;DHT22;25176;51.060;3.720;2023-06-22T07:37:42;24.80;88.00
39493;DHT22;25176;51.060;3.720;2023-06-22T07:40:07;24.70;87.70
39493;DHT22;25176;51.060;3.720;2023-06-22T07:42:33;24.60;87.70
39493;DHT22;25176;51.060;3.720;2023-06-22T07:44:59;24.60;87.70
39493;DHT22;25176;51.060;3.720;2023-06-22T07:47:25;24.40;87.80
39493;DHT22;25176;51.060;3.720;2023-06-22T07:49:55;24.20;88.80
39493;DHT22;25176;51.060;3.720;2023-06-22T07:52:23;24.20;89.20
39493;DHT22;25176;51.060;3.720;2023-06-22T07:54:48;24.10;88.00
39493;DHT22;25176;51.060;3.720;2023-06-22T07:57:16;24.20;87.70
39493;DHT22;25176;51.060;3.720;2023-06-22T07:59:44;24.30;87.30
39493;DHT22;25176;51.060;3.720;2023-06-22T08:02:16;24.70;86.30
39493;DHT22;25176;51.060;3.720;2023-06-22T08:10:20;25.20;83.40
39493;DHT22;25176;51.060;3.720;2023-06-22T08:12:46;25.30;83.10
39493;DHT22;25176;51.060;3.720;2023-06-22T08:15:12;25.00;83.80
39493;DHT22;25176;51.060;3.720;2023-06-22T08:17:38;25.00;83.40
39493;DHT22;25176;51.060;3.720;2023-06-22T08:20:05;25.10;82.30
39493;DHT22;25176;51.060;3.720;2023-06-22T08:22:40;24.90;83.80
39493;DHT22;25176;51.060;3.720;2023-06-22T08:25:06;24.90;83.60
39493;DHT22;25176;51.060;3.720;2023-06-22T08:27:32;24.80;83.50
39493;DHT22;25176;51.060;3.720;2023-06-22T08:29:58;24.70;84.50
39493;DHT22;25176;51.060;3.720;2023-06-22T08:32:27;24.60;85.30
39493;DHT22;25176;51.060;3.720;2023-06-22T08:34:56;24.60;85.10
39493;DHT22;25176;51.060;3.720;2023-06-22T08:37:22;24.70;85.00
39493;DHT22;25176;51.060;3.720;2023-06-22T08:39:59;24.60;84.70
39493;DHT22;25176;51.060;3.720;2023-06-22T08:42:24;24.60;85.20
39493;DHT22;25176;51.060;3.720;2023-06-22T08:44:51;24.40;85.60
39493;DHT22;25176;51.060;3.720;2023-06-22T08:47:16;24.40;86.00
39493;DHT22;25176;51.060;3.720;2023-06-22T08:49:42;24.60;85.90
39493;DHT22;25176;51.060;3.720;2023-06-22T08:52:07;24.90;84.90
39493;DHT22;25176;51.060;3.720;2023-06-22T08:54:33;25.00;84.60
39493;DHT22;25176;51.060;3.720;2023-06-22T08:57:00;24.60;86.20
39493;DHT22;25176;51.060;3.720;2023-06-22T08:59:25;24.50;86.30
39493;DHT22;25176;51.060;3.720;2023-06-22T09:01:51;24.30;85.80
39493;DHT22;25176;51.060;3.720;2023-06-22T09:04:16;24.30;86.30
39493;DHT22;25176;51.060;3.720;2023-06-22T09:06:42;24.30;87.20
39493;DHT22;25176;51.060;3.720;2023-06-22T09:09:15;24.40;87.50
39493;DHT22;25176;51.060;3.720;2023-06-22T09:11:41;24.40;87.30
39493;DHT22;25176;51.060;3.720;2023-06-22T09:14:06;24.10;87.10
39493;DHT22;25176;51.060;3.720;2023-06-22T09:16:32;24.00;87.50
39493;DHT22;25176;51.060;3.720;2023-06-22T09:18:58;24.10;87.10
39493;DHT22;25176;51.060;3.720;2023-06-22T09:21:23;24.10;86.20
39493;DHT22;25176;51.060;3.720;2023-06-22T09:23:49;24.20;85.10
39493;DHT22;25176;51.060;3.720;2023-06-22T09:26:20;24.00;85.40
39493;DHT22;25176;51.060;3.720;2023-06-22T09:28:45;23.90;86.80
39493;DHT22;25176;51.060;3.720;2023-06-22T09:31:11;23.90;87.30
39493;DHT22;25176;51.060;3.720;2023-06-22T09:33:37;23.90;86.30
39493;DHT22;25176;51.060;3.720;2023-06-22T09:36:05;23.70;87.00
39493;DHT22;25176;51.060;3.720;2023-06-22T09:38:38;23.60;87.60
39493;DHT22;25176;51.060;3.720;2023-06-22T09:41:04;23.30;87.40
39493;DHT22;25176;51.060;3.720;2023-06-22T09:43:30;23.30;88.40
39493;DHT22;25176;51.060;3.720;2023-06-22T09:45:56;23.50;89.30
39493;DHT22;25176;51.060;3.720;2023-06-22T09:48:22;23.70;90.00
39493;DHT22;25176;51.060;3.720;2023-06-22T09:50:48;23.90;89.80
39493;DHT22;25176;51.060;3.720;2023-06-22T09:53:13;23.80;90.00
39493;DHT22;25176;51.060;3.720;2023-06-22T09:55:39;23.90;90.60
39493;DHT22;25176;51.060;3.720;2023-06-22T09:58:04;24.00;90.30
39493;DHT22;25176;51.060;3.720;2023-06-22T10:00:30;23.90;90.70
39493;DHT22;25176;51.060;3.720;2023-06-22T10:02:55;24.00;91.20
39493;DHT22;25176;51.060;3.720;2023-06-22T10:05:21;24.10;91.20
39493;DHT22;25176;51.060;3.720;2023-06-22T10:07:47;23.90;91.10
39493;DHT22;25176;51.060;3.720;2023-06-22T10:10:13;23.60;91.00
39493;DHT22;25176;51.060;3.720;2023-06-22T10:12:45;23.50;91.70
39493;DHT22;25176;51.060;3.720;2023-06-22T10:15:11;23.30;91.60
39493;DHT22;25176;51.060;3.720;2023-06-22T10:17:36;23.20;92.40
39493;DHT22;25176;51.060;3.720;2023-06-22T10:20:02;23.30;92.90
39493;DHT22;25176;51.060;3.720;2023-06-22T10:22:34;23.30;92.60
39493;DHT22;25176;51.060;3.720;2023-06-22T10:25:00;23.20;93.20
39493;DHT22;25176;51.060;3.720;2023-06-22T10:27:25;23.20;93.70
39493;DHT22;25176;51.060;3.720;2023-06-22T10:29:50;23.00;93.90
39493;DHT22;25176;51.060;3.720;2023-06-22T10:32:16;23.10;94.20
39493;DHT22;25176;51.060;3.720;2023-06-22T10:34:42;23.20;94.10
39493;DHT22;25176;51.060;3.720;2023-06-22T10:37:07;23.00;94.50
39493;DHT22;25176;51.060;3.720;2023-06-22T10:39:33;23.20;96.00
39493;DHT22;25176;51.060;3.720;2023-06-22T10:41:58;23.30;95.90
39493;DHT22;25176;51.060;3.720;2023-06-22T10:44:24;23.40;94.90
39493;DHT22;25176;51.060;3.720;2023-06-22T10:46:50;23.40;94.50
39493;DHT22;25176;51.060;3.720;2023-06-22T10:49:15;23.40;95.30
39493;DHT22;25176;51.060;3.720;2023-06-22T10:51:41;23.50;95.50
39493;DHT22;25176;51.060;3.720;2023-06-22T10:54:07;23.40;95.70
39493;DHT22;25176;51.060;3.720;2023-06-22T10:56:32;23.40;96.50
39493;DHT22;25176;51.060;3.720;2023-06-22T10:58:59;23.40;96.60
39493;DHT22;25176;51.060;3.720;2023-06-22T11:01:24;23.20;94.60
39493;DHT22;25176;51.060;3.720;2023-06-22T11:03:50;23.20;95.00
39493;DHT22;25176;51.060;3.720;2023-06-22T11:06:15;23.00;94.00
39493;DHT22;25176;51.060;3.720;2023-06-22T11:08:43;22.80;94.90
39493;DHT22;25176;51.060;3.720;2023-06-22T11:11:09;22.60;95.00
39493;DHT22;25176;51.060;3.720;2023-06-22T11:13:34;22.20;96.00
39493;DHT22;25176;51.060;3.720;2023-06-22T11:16:00;22.10;96.70
39493;DHT22;25176;51.060;3.720;2023-06-22T11:18:25;22.00;97.10
39493;DHT22;25176;51.060;3.720;2023-06-22T11:20:51;22.00;98.10
39493;DHT22;25176;51.060;3.720;2023-06-22T11:23:16;22.10;98.80
39493;DHT22;25176;51.060;3.720;2023-06-22T11:25:42;22.30;98.60
39493;DHT22;25176;51.060;3.720;2023-06-22T11:28:08;22.30;97.70
39493;DHT22;25176;51.060;3.720;2023-06-22T11:30:33;22.20;96.60
39493;DHT22;25176;51.060;3.720;2023-06-22T11:32:59;22.30;97.10
39493;DHT22;25176;51.060;3.720;2023-06-22T11:35:25;22.30;97.00
39493;DHT22;25176;51.060;3.720;2023-06-22T11:37:51;22.20;96.00
39493;DHT22;25176;51.060;3.720;2023-06-22T11:40:16;22.20;93.80
39493;DHT22;25176;51.060;3.720;2023-06-22T11:42:43;22.20;94.30
39493;DHT22;25176;51.060;3.720;2023-06-22T11:45:08;22.30;94.70
39493;DHT22;25176;51.060;3.720;2023-06-22T11:47:34;22.50;93.70
39493;DHT22;25176;51.060;3.720;2023-06-22T11:49:59;22.70;93.50
39493;DHT22;25176;51.060;3.720;2023-06-22T11:52:25;22.70;92.30
39493;DHT22;25176;51.060;3.720;2023-06-22T11:54:52;22.80;93.00
39493;DHT22;25176;51.060;3.720;2023-06-22T11:57:18;23.00;92.80
39493;DHT22;25176;51.060;3.720;2023-06-22T11:59:43;22.80;92.10
39493;DHT22;25176;51.060;3.720;2023-06-22T12:02:09;22.90;92.80
39493;DHT22;25176;51.060;3.720;2023-06-22T12:04:34;23.10;93.30
39493;DHT22;25176;51.060;3.720;2023-06-22T12:07:00;23.10;93.00
39493;DHT22;25176;51.060;3.720;2023-06-22T12:09:26;22.90;92.90
39493;DHT22;25176;51.060;3.720;2023-06-22T12:11:51;22.90;92.80
39493;DHT22;25176;51.060;3.720;2023-06-22T12:14:17;23.00;93.70
39493;DHT22;25176;51.060;3.720;2023-06-22T12:16:42;23.20;93.90
39493;DHT22;25176;51.060;3.720;2023-06-22T12:19:09;23.30;93.40
39493;DHT22;25176;51.060;3.720;2023-06-22T12:21:35;23.10;93.80
39493;DHT22;25176;51.060;3.720;2023-06-22T12:24:00;23.20;93.60
39493;DHT22;25176;51.060;3.720;2023-06-22T12:26:26;23.20;93.60
39493;DHT22;25176;51.060;3.720;2023-06-22T12:28:51;23.30;94.10
39493;DHT22;25176;51.060;3.720;2023-06-22T12:31:17;23.20;93.70
39493;DHT22;25176;51.060;3.720;2023-06-22T12:33:45;23.40;93.90
39493;DHT22;25176;51.060;3.720;2023-06-22T12:36:11;23.60;94.20
39493;DHT22;25176;51.060;3.720;2023-06-22T12:38:36;23.90;93.80
39493;DHT22;25176;51.060;3.720;2023-06-22T12:41:02;24.00;93.20
39493;DHT22;25176;51.060;3.720;2023-06-22T12:43:27;24.20;93.60
39493;DHT22;25176;51.060;3.720;2023-06-22T12:45:53;24.20;93.60
39493;DHT22;25176;51.060;3.720;2023-06-22T12:48:18;24.10;92.80
39493;DHT22;25176;51.060;3.720;2023-06-22T12:50:45;24.10;93.10
39493;DHT22;25176;51.060;3.720;2023-06-22T12:53:11;24.00;93.10
39493;DHT22;25176;51.060;3.720;2023-06-22T12:55:36;23.80;92.70
39493;DHT22;25176;51.060;3.720;2023-06-22T12:58:02;23.80;93.20
39493;DHT22;25176;51.060;3.720;2023-06-22T13:00:27;23.70;92.80
39493;DHT22;25176;51.060;3.720;2023-06-22T13:02:53;23.70;93.50
39493;DHT22;25176;51.060;3.720;2023-06-22T13:05:18;23.70;93.90
39493;DHT22;25176;51.060;3.720;2023-06-22T13:07:44;23.90;94.30
39493;DHT22;25176;51.060;3.720;2023-06-22T13:10:10;23.80;94.10
39493;DHT22;25176;51.060;3.720;2023-06-22T13:12:36;23.60;94.30
39493;DHT22;25176;51.060;3.720;2023-06-22T13:15:02;23.80;95.10
39493;DHT22;25176;51.060;3.720;2023-06-22T13:17:28;23.90;94.90
39493;DHT22;25176;51.060;3.720;2023-06-22T13:19:54;24.10;94.40
39493;DHT22;25176;51.060;3.720;2023-06-22T13:24:54;23.80;94.70
39493;DHT22;25176;51.060;3.720;2023-06-22T13:27:20;23.70;94.30
39493;DHT22;25176;51.060;3.720;2023-06-22T13:29:45;23.70;94.10
39493;DHT22;25176;51.060;3.720;2023-06-22T13:32:11;23.80;93.20
39493;DHT22;25176;51.060;3.720;2023-06-22T13:34:37;23.70;94.40
39493;DHT22;25176;51.060;3.720;2023-06-22T13:37:03;23.90;94.90
39493;DHT22;25176;51.060;3.720;2023-06-22T13:39:28;24.10;94.60
39493;DHT22;25176;51.060;3.720;2023-06-22T13:41:54;24.00;94.10
39493;DHT22;25176;51.060;3.720;2023-06-22T13:44:20;24.00;94.10
39493;DHT22;25176;51.060;3.720;2023-06-22T13:46:47;23.90;94.30
39493;DHT22;25176;51.060;3.720;2023-06-22T13:49:13;23.90;94.40
39493;DHT22;25176;51.060;3.720;2023-06-22T13:51:38;24.00;94.60
39493;DHT22;25176;51.060;3.720;2023-06-22T13:54:04;24.10;95.20
39493;DHT22;25176;51.060;3.720;2023-06-22T13:56:29;24.20;94.60
39493;DHT22;25176;51.060;3.720;2023-06-22T13:58:55;24.60;94.30
39493;DHT22;25176;51.060;3.720;2023-06-22T14:01:20;24.80;93.70
39493;DHT22;25176;51.060;3.720;2023-06-22T14:03:47;24.80;93.80
39493;DHT22;25176;51.060;3.720;2023-06-22T14:06:13;24.40;94.10
39493;DHT22;25176;51.060;3.720;2023-06-22T14:08:39;24.70;94.00
39493;DHT22;25176;51.060;3.720;2023-06-22T14:11:07;24.90;94.10
39493;DHT22;25176;51.060;3.720;2023-06-22T14:13:35;24.90;94.00
39493;DHT22;25176;51.060;3.720;2023-06-22T14:16:01;25.00;93.70
39493;DHT22;25176;51.060;3.720;2023-06-22T14:18:27;25.20;93.80
39493;DHT22;25176;51.060;3.720;2023-06-22T14:20:53;25.20;93.50
39493;DHT22;25176;51.060;3.720;2023-06-22T14:23:19;25.30;93.40
39493;DHT22;25176;51.060;3.720;2023-06-22T14:25:46;25.50;93.10
39493;DHT22;25176;51.060;3.720;2023-06-22T14:28:12;25.10;93.80
39493;DHT22;25176;51.060;3.720;2023-06-22T14:30:39;25.10;93.80
39493;DHT22;25176;51.060;3.720;2023-06-22T14:33:04;24.90;94.70
39493;DHT22;25176;51.060;3.720;2023-06-22T14:35:30;24.60;95.30
39493;DHT22;25176;51.060;3.720;2023-06-22T14:37:56;24.40;95.40
39493;DHT22;25176;51.060;3.720;2023-06-22T14:40:21;24.30;96.40
39493;DHT22;25176;51.060;3.720;2023-06-22T14:42:48;24.30;96.80
39493;DHT22;25176;51.060;3.720;2023-06-22T14:45:14;24.20;96.50
39493;DHT22;25176;51.060;3.720;2023-06-22T14:47:39;24.20;97.00
39493;DHT22;25176;51.060;3.720;2023-06-22T14:50:05;24.30;96.70
39493;DHT22;25176;51.060;3.720;2023-06-22T14:52:30;24.40;96.90
39493;DHT22;25176;51.060;3.720;2023-06-22T14:54:56;24.40;96.50
39493;DHT22;25176;51.060;3.720;2023-06-22T14:57:22;24.60;96.70
39493;DHT22;25176;51.060;3.720;2023-06-22T14:59:48;25.00;95.80
39493;DHT22;25176;51.060;3.720;2023-06-22T15:02:14;24.90;94.50
39493;DHT22;25176;51.060;3.720;2023-06-22T15:04:40;25.20;94.90
39493;DHT22;25176;51.060;3.720;2023-06-22T15:07:05;25.00;94.70
39493;DHT22;25176;51.060;3.720;2023-06-22T15:09:31;25.10;94.40
39493;DHT22;25176;51.060;3.720;2023-06-22T15:11:56;25.30;94.20
39493;DHT22;25176;51.060;3.720;2023-06-22T15:14:23;25.20;94.30
39493;DHT22;25176;51.060;3.720;2023-06-22T15:16:48;25.40;94.40
39493;DHT22;25176;51.060;3.720;2023-06-22T15:19:14;25.40;94.30
39493;DHT22;25176;51.060;3.720;2023-06-22T15:21:39;25.40;94.40
39493;DHT22;25176;51.060;3.720;2023-06-22T15:24:05;25.50;94.30
39493;DHT22;25176;51.060;3.720;2023-06-22T15:26:31;25.40;94.10
39493;DHT22;25176;51.060;3.720;2023-06-22T15:28:56;25.70;94.20
39493;DHT22;25176;51.060;3.720;2023-06-22T15:31:22;26.00;93.60